createdAt,value
2018-09-01T00:02:22.569Z,14.33
2018-09-01T00:04:51.680Z,14.30
2018-09-01T00:07:20.855Z,14.29
2018-09-01T00:09:49.951Z,14.29
2018-09-01T00:12:19.057Z,14.32
2018-09-01T00:14:48.237Z,14.28
2018-09-01T00:17:22.881Z,14.28
2018-09-01T00:19:51.979Z,14.28
2018-09-01T00:22:21.107Z,14.29
2018-09-01T00:24:51.936Z,14.21
2018-09-01T00:27:21.517Z,14.20
2018-09-01T00:29:51.232Z,14.20
2018-09-01T00:32:21.040Z,14.18
2018-09-01T00:34:50.856Z,14.18
2018-09-01T00:37:25.279Z,14.18
2018-09-01T00:39:54.454Z,14.22
2018-09-01T00:42:23.600Z,14.21
2018-09-01T00:44:52.817Z,14.18
2018-09-01T00:47:22.000Z,14.22
2018-09-01T00:49:51.132Z,14.16
2018-09-01T00:52:20.280Z,14.14
2018-09-01T00:54:49.460Z,14.20
2018-09-01T00:57:18.688Z,14.22
2018-09-01T00:59:47.902Z,14.19
2018-09-01T01:02:17.088Z,14.18
2018-09-01T01:04:46.292Z,14.12
2018-09-01T01:07:15.639Z,14.18
2018-09-01T01:09:45.588Z,14.10
2018-09-01T01:12:14.838Z,14.10
2018-09-01T01:14:43.951Z,14.10
2018-09-01T01:17:13.083Z,14.11
2018-09-01T01:19:42.226Z,14.11
2018-09-01T01:22:11.358Z,14.12
2018-09-01T01:24:40.531Z,14.10
2018-09-01T01:27:09.805Z,14.10
2018-09-01T01:29:38.969Z,14.04
2018-09-01T01:32:08.177Z,14.06
2018-09-01T01:34:37.289Z,14.07
2018-09-01T01:37:06.481Z,14.05
2018-09-01T01:39:35.579Z,13.99
2018-09-01T01:42:04.749Z,14.00
2018-09-01T01:44:33.850Z,14.01
2018-09-01T01:47:03.395Z,14.00
2018-09-01T01:49:32.617Z,14.04
2018-09-01T01:52:01.753Z,14.02
2018-09-01T01:54:30.953Z,13.98
2018-09-01T01:57:00.077Z,13.96
2018-09-01T01:59:29.241Z,13.91
2018-09-01T02:01:58.445Z,13.96
2018-09-01T02:04:27.554Z,13.93
2018-09-01T02:06:56.652Z,13.81
2018-09-01T02:09:25.844Z,13.82
2018-09-01T02:11:55.015Z,13.87
2018-09-01T02:14:24.195Z,13.86
2018-09-01T02:16:53.344Z,13.86
2018-09-01T02:19:22.468Z,13.90
2018-09-01T02:21:51.864Z,13.86
2018-09-01T02:24:20.986Z,13.77
2018-09-01T02:26:50.127Z,13.78
2018-09-01T02:29:19.412Z,13.77
2018-09-01T02:31:48.606Z,13.74
2018-09-01T02:34:17.818Z,13.75
2018-09-01T02:36:46.925Z,13.77
2018-09-01T02:39:16.051Z,13.73
2018-09-01T02:41:45.188Z,13.73
2018-09-01T02:44:14.403Z,13.74
2018-09-01T02:46:43.509Z,13.71
2018-09-01T02:49:12.619Z,13.73
2018-09-01T02:51:41.727Z,13.69
2018-09-01T02:54:10.971Z,13.66
2018-09-01T02:56:40.089Z,13.68
2018-09-01T02:59:09.225Z,13.69
2018-09-01T03:01:38.392Z,13.69
2018-09-01T03:04:08.141Z,13.65
2018-09-01T03:06:48.556Z,13.65
2018-09-01T03:09:17.832Z,13.61
2018-09-01T03:11:47.025Z,13.62
2018-09-01T03:14:16.251Z,13.65
2018-09-01T03:16:45.440Z,13.60
2018-09-01T03:19:14.622Z,13.64
2018-09-01T03:21:43.778Z,13.60
2018-09-01T03:24:12.922Z,13.64
2018-09-01T03:26:42.136Z,13.59
2018-09-01T03:29:11.236Z,13.58
2018-09-01T03:31:40.365Z,13.55
2018-09-01T03:34:09.564Z,13.57
2018-09-01T03:36:38.689Z,13.53
2018-09-01T03:39:09.064Z,13.56
2018-09-01T03:41:38.804Z,13.58
2018-09-01T03:44:08.080Z,13.57
2018-09-01T03:46:37.255Z,13.50
2018-09-01T03:49:07.932Z,13.54
2018-09-01T03:51:37.068Z,13.47
2018-09-01T03:54:06.692Z,13.50
2018-09-01T03:56:35.831Z,13.40
2018-09-01T03:59:05.031Z,13.45
2018-09-01T04:01:34.292Z,13.43
2018-09-01T04:04:03.386Z,13.43
2018-09-01T04:06:32.590Z,13.38
2018-09-01T04:09:01.722Z,13.40
2018-09-01T04:11:30.848Z,13.36
2018-09-01T04:13:59.962Z,13.39
2018-09-01T04:16:29.138Z,13.33
2018-09-01T04:19:02.381Z,13.34
2018-09-01T04:21:31.521Z,13.34
2018-09-01T04:24:00.690Z,13.31
2018-09-01T04:26:29.834Z,13.33
2018-09-01T04:28:58.960Z,13.34
2018-09-01T04:31:28.061Z,13.31
2018-09-01T04:33:57.389Z,13.30
2018-09-01T04:36:26.720Z,13.27
2018-09-01T04:38:56.133Z,13.26
2018-09-01T04:41:25.312Z,13.30
2018-09-01T04:43:54.443Z,13.27
2018-09-01T04:46:23.596Z,13.31
2018-09-01T04:48:52.831Z,13.27
2018-09-01T04:51:22.012Z,13.33
2018-09-01T04:53:51.228Z,13.31
2018-09-01T04:56:20.342Z,13.26
2018-09-01T04:58:49.504Z,13.24
2018-09-01T05:01:18.635Z,13.26
2018-09-01T05:03:47.812Z,13.23
2018-09-01T05:06:16.972Z,13.23
2018-09-01T05:08:46.224Z,13.29
2018-09-01T05:11:15.375Z,13.34
2018-09-01T05:13:44.576Z,13.37
2018-09-01T05:16:13.793Z,13.37
2018-09-01T05:18:42.955Z,13.44
2018-09-01T05:21:12.196Z,13.35
2018-09-01T05:23:41.307Z,13.36
2018-09-01T05:26:10.430Z,13.36
2018-09-01T05:28:39.557Z,13.38
2018-09-01T05:31:08.773Z,13.32
2018-09-01T05:33:38.061Z,13.32
2018-09-01T05:36:07.197Z,13.27
2018-09-01T05:38:36.324Z,13.26
2018-09-01T05:41:05.665Z,13.25
2018-09-01T05:43:34.862Z,13.23
2018-09-01T05:46:04.096Z,13.17
2018-09-01T05:48:33.328Z,13.23
2018-09-01T05:51:02.461Z,13.18
2018-09-01T05:53:31.644Z,13.22
2018-09-01T05:56:00.911Z,13.12
2018-09-01T05:58:30.160Z,13.15
2018-09-01T06:00:59.352Z,13.19
2018-09-01T06:03:28.523Z,13.15
2018-09-01T06:05:58.261Z,13.10
2018-09-01T06:08:27.416Z,13.12
2018-09-01T06:10:57.612Z,13.06
2018-09-01T06:13:26.793Z,13.06
2018-09-01T06:15:56.281Z,13.04
2018-09-01T06:18:25.480Z,13.02
2018-09-01T06:20:54.720Z,13.05
2018-09-01T06:23:23.928Z,13.15
2018-09-01T06:25:53.022Z,13.12
2018-09-01T06:28:25.305Z,13.16
2018-09-01T06:30:55.317Z,13.15
2018-09-01T06:33:24.600Z,13.22
2018-09-01T06:35:53.788Z,13.26
2018-09-01T06:38:22.949Z,13.25
2018-09-01T06:40:52.108Z,13.20
2018-09-01T06:43:21.376Z,13.16
2018-09-01T06:45:50.463Z,13.10
2018-09-01T06:48:19.644Z,13.14
2018-09-01T06:50:48.952Z,13.17
2018-09-01T06:53:18.089Z,13.19
2018-09-01T06:55:47.270Z,13.23
2018-09-01T06:58:16.444Z,13.12
2018-09-01T07:00:45.603Z,13.14
2018-09-01T07:03:14.713Z,13.17
2018-09-01T07:05:43.823Z,13.19
2018-09-01T07:08:12.995Z,13.22
2018-09-01T07:10:42.188Z,13.15
2018-09-01T07:13:11.424Z,13.07
2018-09-01T07:15:40.553Z,13.04
2018-09-01T07:18:09.772Z,12.95
2018-09-01T07:20:38.897Z,13.05
2018-09-01T07:23:08.085Z,13.08
2018-09-01T07:25:37.272Z,13.03
2018-09-01T07:28:06.404Z,13.03
2018-09-01T07:30:35.727Z,13.00
2018-09-01T07:33:04.654Z,13.00
2018-09-01T07:35:33.856Z,13.00
2018-09-01T07:38:03.073Z,13.00
2018-09-01T07:40:32.249Z,13.01
2018-09-01T07:43:01.456Z,13.00
2018-09-01T07:45:30.557Z,12.98
2018-09-01T07:47:59.732Z,13.02
2018-09-01T07:50:28.868Z,13.03
2018-09-01T07:52:58.025Z,13.01
2018-09-01T07:55:27.221Z,13.05
2018-09-01T07:57:56.509Z,13.03
2018-09-01T08:00:25.747Z,13.12
2018-09-01T08:02:54.864Z,13.17
2018-09-01T08:05:24.000Z,13.17
2018-09-01T08:07:53.250Z,13.15
2018-09-01T08:10:22.432Z,13.15
2018-09-01T08:12:51.530Z,13.13
2018-09-01T08:15:20.708Z,13.04
2018-09-01T08:17:49.831Z,13.01
2018-09-01T08:20:19.133Z,13.11
2018-09-01T08:22:48.394Z,13.09
2018-09-01T08:25:17.522Z,13.09
2018-09-01T08:27:46.684Z,13.07
2018-09-01T08:30:15.880Z,13.02
2018-09-01T08:32:45.000Z,13.05
2018-09-01T08:35:14.200Z,13.01
2018-09-01T08:37:43.311Z,13.00
2018-09-01T08:40:12.455Z,12.98
2018-09-01T08:42:41.565Z,13.02
2018-09-01T08:45:10.677Z,13.05
2018-09-01T08:47:39.871Z,13.09
2018-09-01T08:50:09.095Z,13.07
2018-09-01T08:52:38.213Z,13.04
2018-09-01T08:55:07.354Z,13.08
2018-09-01T08:57:36.557Z,13.08
2018-09-01T09:00:05.977Z,13.13
2018-09-01T09:02:35.163Z,13.12
2018-09-01T09:05:04.512Z,13.11
2018-09-01T09:07:33.776Z,13.21
2018-09-01T09:10:02.881Z,13.28
2018-09-01T09:12:31.997Z,13.21
2018-09-01T09:15:01.121Z,13.24
2018-09-01T09:17:30.221Z,13.26
2018-09-01T09:19:59.349Z,13.16
2018-09-01T09:22:28.550Z,13.15
2018-09-01T09:24:57.736Z,13.22
2018-09-01T09:27:27.013Z,13.17
2018-09-01T09:29:56.189Z,13.11
2018-09-01T09:32:25.296Z,13.06
2018-09-01T09:34:54.428Z,13.16
2018-09-01T09:37:23.552Z,13.06
2018-09-01T09:39:52.668Z,13.00
2018-09-01T09:42:21.774Z,13.03
2018-09-01T09:44:50.913Z,13.01
2018-09-01T09:47:20.009Z,12.96
2018-09-01T09:49:49.111Z,13.04
2018-09-01T09:52:18.652Z,13.13
2018-09-01T09:54:47.770Z,13.21
2018-09-01T09:57:16.888Z,13.31
2018-09-01T09:59:46.009Z,13.30
2018-09-01T10:02:15.168Z,13.28
2018-09-01T10:04:44.379Z,13.23
2018-09-01T10:07:13.555Z,13.21
2018-09-01T10:09:42.653Z,13.17
2018-09-01T10:12:12.476Z,13.18
2018-09-01T10:14:41.699Z,13.27
2018-09-01T10:17:10.811Z,13.25
2018-09-01T10:19:39.979Z,13.25
2018-09-01T10:22:09.682Z,13.46
2018-09-01T10:24:38.987Z,13.38
2018-09-01T10:27:08.371Z,13.32
2018-09-01T10:29:37.506Z,13.25
2018-09-01T10:32:07.033Z,13.35
2018-09-01T10:34:36.123Z,13.37
2018-09-01T10:37:05.243Z,13.44
2018-09-01T10:39:34.465Z,13.47
2018-09-01T10:42:03.564Z,13.56
2018-09-01T10:44:32.679Z,13.50
2018-09-01T10:47:01.788Z,13.57
2018-09-01T10:49:30.881Z,13.70
2018-09-01T10:52:00.049Z,13.67
2018-09-01T10:54:29.232Z,13.48
2018-09-01T10:56:58.336Z,13.46
2018-09-01T10:59:27.771Z,13.55
2018-09-01T11:01:57.656Z,13.61
2018-09-01T11:04:26.758Z,13.64
2018-09-01T11:06:55.956Z,13.62
2018-09-01T11:09:25.052Z,13.68
2018-09-01T11:11:54.184Z,13.60
2018-09-01T11:14:23.291Z,13.60
2018-09-01T11:16:52.390Z,13.50
2018-09-01T11:19:21.504Z,13.49
2018-09-01T11:21:50.653Z,13.48
2018-09-01T11:24:19.767Z,13.53
2018-09-01T11:26:48.898Z,13.54
2018-09-01T11:29:18.016Z,13.52
2018-09-01T11:31:47.207Z,13.53
2018-09-01T11:34:17.250Z,13.51
2018-09-01T11:36:46.394Z,13.47
2018-09-01T11:39:15.479Z,13.50
2018-09-01T11:41:44.630Z,13.40
2018-09-01T11:44:13.844Z,13.37
2018-09-01T11:46:42.930Z,13.51
2018-09-01T11:49:12.070Z,13.42
2018-09-01T11:51:41.211Z,13.51
2018-09-01T11:54:10.337Z,13.48
2018-09-01T11:56:39.445Z,13.51
2018-09-01T11:59:08.599Z,13.45
2018-09-01T12:01:37.709Z,13.44
2018-09-01T12:04:06.885Z,13.54
2018-09-01T12:06:36.085Z,13.47
2018-09-01T12:09:06.195Z,13.52
2018-09-01T12:11:35.322Z,13.51
2018-09-01T12:14:04.558Z,13.50
2018-09-01T12:16:33.681Z,13.52
2018-09-01T12:19:02.898Z,13.41
2018-09-01T12:21:32.013Z,13.40
2018-09-01T12:24:01.193Z,13.38
2018-09-01T12:26:30.489Z,13.40
2018-09-01T12:28:59.682Z,13.38
2018-09-01T12:31:28.859Z,13.32
2018-09-01T12:33:57.964Z,13.33
2018-09-01T12:36:27.212Z,13.36
2018-09-01T12:38:56.320Z,13.33
2018-09-01T12:41:25.468Z,13.33
2018-09-01T12:43:54.684Z,13.39
2018-09-01T12:46:23.855Z,13.50
2018-09-01T12:48:52.958Z,13.61
2018-09-01T12:51:22.085Z,13.64
2018-09-01T12:53:51.244Z,13.69
2018-09-01T12:56:20.452Z,13.68
2018-09-01T12:58:49.597Z,13.54
2018-09-01T13:01:18.716Z,13.51
2018-09-01T13:03:47.824Z,13.46
2018-09-01T13:06:17.052Z,13.44
2018-09-01T13:08:46.146Z,13.36
2018-09-01T13:11:15.334Z,13.32
2018-09-01T13:13:44.548Z,13.38
2018-09-01T13:16:13.737Z,13.30
2018-09-01T13:18:42.880Z,13.29
2018-09-01T13:21:12.087Z,13.33
2018-09-01T13:23:41.636Z,13.40
2018-09-01T13:26:10.719Z,13.30
2018-09-01T13:28:39.930Z,13.24
2018-09-01T13:31:09.097Z,13.18
2018-09-01T13:33:39.335Z,13.23
2018-09-01T13:36:08.549Z,13.23
2018-09-01T13:38:37.737Z,13.32
2018-09-01T13:41:06.905Z,13.15
2018-09-01T13:43:36.085Z,13.19
2018-09-01T13:46:05.303Z,13.09
2018-09-01T13:48:34.392Z,13.08
2018-09-01T13:51:03.525Z,13.15
2018-09-01T13:53:32.692Z,13.22
2018-09-01T13:56:01.908Z,13.26
2018-09-01T13:58:31.072Z,13.23
2018-09-01T14:01:00.333Z,13.28
2018-09-01T14:03:29.436Z,13.22
2018-09-01T14:05:58.556Z,13.27
2018-09-01T14:08:27.672Z,13.21
2018-09-01T14:10:56.791Z,13.14
2018-09-01T14:13:25.945Z,13.20
2018-09-01T14:15:55.176Z,13.13
2018-09-01T14:18:24.369Z,13.03
2018-09-01T14:20:53.544Z,13.14
2018-09-01T14:23:22.669Z,13.12
2018-09-01T14:25:51.856Z,13.05
2018-09-01T14:28:20.985Z,13.07
2018-09-01T14:30:50.159Z,13.09
2018-09-01T14:33:19.347Z,13.06
2018-09-01T14:35:48.643Z,13.03
2018-09-01T14:38:17.768Z,13.00
2018-09-01T14:40:46.910Z,13.04
2018-09-01T14:43:16.116Z,13.03
2018-09-01T14:45:45.240Z,13.08
2018-09-01T14:48:14.419Z,13.06
2018-09-01T14:50:43.566Z,13.09
2018-09-01T14:53:12.769Z,13.04
2018-09-01T14:55:41.889Z,13.05
2018-09-01T14:58:11.041Z,13.04
2018-09-01T15:00:40.152Z,13.01
2018-09-01T15:03:09.332Z,12.97
2018-09-01T15:05:38.522Z,12.96
2018-09-01T15:08:07.739Z,13.02
2018-09-01T15:10:37.863Z,12.97
2018-09-01T15:13:07.041Z,13.00
2018-09-01T15:15:36.253Z,13.02
2018-09-01T15:18:05.514Z,12.97
2018-09-01T15:20:34.707Z,12.98
2018-09-01T15:23:03.807Z,12.96
2018-09-01T15:25:32.992Z,12.90
2018-09-01T15:28:02.130Z,12.93
2018-09-01T15:30:31.295Z,12.95
2018-09-01T15:33:00.444Z,12.99
2018-09-01T15:35:29.713Z,13.02
2018-09-01T15:37:58.840Z,13.01
2018-09-01T15:40:28.749Z,12.97
2018-09-01T15:42:57.977Z,12.99
2018-09-01T15:45:27.260Z,12.97
2018-09-01T15:47:56.360Z,12.99
2018-09-01T15:50:25.525Z,12.99
2018-09-01T15:52:54.732Z,12.93
2018-09-01T15:55:23.898Z,12.90
2018-09-01T15:57:53.106Z,12.87
2018-09-01T16:00:22.454Z,12.90
2018-09-01T16:02:52.685Z,12.94
2018-09-01T16:05:21.954Z,12.92
2018-09-01T16:07:51.112Z,12.93
2018-09-01T16:10:20.214Z,12.91
2018-09-01T16:12:49.368Z,12.91
2018-09-01T16:15:18.486Z,12.92
2018-09-01T16:17:47.598Z,12.90
2018-09-01T16:20:16.709Z,12.91
2018-09-01T16:22:45.887Z,12.90
2018-09-01T16:25:15.111Z,12.85
2018-09-01T16:27:44.334Z,12.87
2018-09-01T16:30:13.419Z,12.86
2018-09-01T16:32:42.524Z,12.82
2018-09-01T16:35:12.330Z,12.84
2018-09-01T16:37:41.423Z,12.83
2018-09-01T16:40:10.739Z,12.82
2018-09-01T16:42:39.967Z,12.72
2018-09-01T16:45:09.185Z,12.74
2018-09-01T16:47:38.374Z,12.73
2018-09-01T16:50:07.634Z,12.73
2018-09-01T16:52:36.773Z,12.73
2018-09-01T16:55:05.971Z,12.72
2018-09-01T16:57:35.105Z,12.70
2018-09-01T17:00:04.781Z,12.73
2018-09-01T17:02:33.877Z,12.75
2018-09-01T17:05:03.053Z,12.72
2018-09-01T17:07:32.165Z,12.64
2018-09-01T17:10:01.265Z,12.68
2018-09-01T17:12:30.471Z,12.67
2018-09-01T17:14:59.710Z,12.54
2018-09-01T17:17:28.849Z,12.58
2018-09-01T17:19:58.061Z,12.55
2018-09-01T17:22:27.293Z,12.61
2018-09-01T17:24:56.396Z,12.61
2018-09-01T17:27:25.524Z,12.66
2018-09-01T17:29:54.744Z,12.66
2018-09-01T17:32:23.959Z,12.54
2018-09-01T17:34:53.152Z,12.62
2018-09-01T17:37:22.330Z,12.64
2018-09-01T17:39:51.440Z,12.63
2018-09-01T17:42:20.647Z,12.68
2018-09-01T17:44:49.802Z,12.67
2018-09-01T17:47:18.908Z,12.65
2018-09-01T17:49:48.031Z,12.58
2018-09-01T17:52:17.212Z,12.55
2018-09-01T17:54:46.418Z,12.62
2018-09-01T17:57:15.692Z,12.56
2018-09-01T17:59:45.106Z,12.62
2018-09-01T18:02:14.383Z,12.63
2018-09-01T18:04:43.521Z,12.62
2018-09-01T18:07:12.787Z,12.64
2018-09-01T18:09:41.883Z,12.67
2018-09-01T18:12:11.133Z,12.62
2018-09-01T18:14:40.370Z,12.53
2018-09-01T18:17:09.511Z,12.48
2018-09-01T18:19:38.657Z,12.59
2018-09-01T18:22:08.077Z,12.48
2018-09-01T18:24:37.301Z,12.33
2018-09-01T18:27:06.529Z,12.37
2018-09-01T18:29:35.790Z,12.33
2018-09-01T18:32:04.897Z,12.39
2018-09-01T18:34:34.911Z,12.43
2018-09-01T18:37:04.157Z,12.39
2018-09-01T18:39:34.327Z,12.43
2018-09-01T18:42:03.435Z,12.39
2018-09-01T18:44:32.543Z,12.33
2018-09-01T18:47:01.819Z,12.35
2018-09-01T18:49:31.029Z,12.41
2018-09-01T18:52:00.135Z,12.48
2018-09-01T18:54:29.404Z,12.50
2018-09-01T18:56:58.536Z,12.47
2018-09-01T18:59:27.645Z,12.44
2018-09-01T19:01:56.793Z,12.45
2018-09-01T19:04:26.012Z,12.32
2018-09-01T19:06:55.190Z,12.26
2018-09-01T19:09:24.315Z,12.24
2018-09-01T19:11:53.599Z,12.24
2018-09-01T19:14:22.732Z,12.08
2018-09-01T19:16:51.992Z,12.09
2018-09-01T19:19:22.324Z,12.17
2018-09-01T19:21:51.428Z,12.12
2018-09-01T19:24:21.074Z,12.17
2018-09-01T19:26:50.238Z,12.24
2018-09-01T19:29:19.433Z,12.12
2018-09-01T19:31:48.834Z,12.09
2018-09-01T19:34:18.165Z,12.15
2018-09-01T19:36:47.296Z,12.04
2018-09-01T19:39:16.488Z,12.03
2018-09-01T19:41:45.639Z,12.04
2018-09-01T19:44:14.799Z,12.08
2018-09-01T19:46:43.991Z,12.11
2018-09-01T19:49:13.167Z,12.12
2018-09-01T19:51:42.317Z,11.98
2018-09-01T19:54:12.167Z,11.88
2018-09-01T19:56:41.301Z,11.94
2018-09-01T19:59:10.425Z,11.89
2018-09-01T20:01:39.609Z,11.82
2018-09-01T20:04:08.713Z,11.87
2018-09-01T20:06:37.828Z,11.84
2018-09-01T20:09:07.120Z,11.86
2018-09-01T20:11:37.129Z,11.90
2018-09-01T20:14:07.486Z,11.93
2018-09-01T20:16:36.645Z,11.90
2018-09-01T20:19:06.225Z,11.83
2018-09-01T20:21:35.337Z,11.92
2018-09-01T20:24:05.008Z,11.94
2018-09-01T20:26:34.165Z,12.01
2018-09-01T20:29:03.363Z,12.04
2018-09-01T20:31:32.499Z,12.01
2018-09-01T20:34:01.722Z,12.05
2018-09-01T20:36:30.916Z,12.06
2018-09-01T20:39:00.022Z,11.99
2018-09-01T20:41:29.163Z,11.84
2018-09-01T20:43:58.357Z,11.84
2018-09-01T20:46:27.457Z,11.97
2018-09-01T20:48:56.601Z,11.94
2018-09-01T20:51:25.807Z,11.83
2018-09-01T20:53:55.021Z,11.86
2018-09-01T20:56:24.167Z,11.85
2018-09-01T20:58:53.289Z,11.97
2018-09-01T21:01:22.397Z,11.99
2018-09-01T21:03:51.852Z,11.95
2018-09-01T21:06:21.103Z,11.98
2018-09-01T21:08:50.264Z,12.03
2018-09-01T21:11:19.421Z,12.03
2018-09-01T21:13:48.673Z,11.93
2018-09-01T21:16:18.396Z,11.89
2018-09-01T21:18:47.662Z,11.99
2018-09-01T21:21:16.764Z,12.02
2018-09-01T21:23:45.987Z,11.94
2018-09-01T21:26:15.100Z,11.97
2018-09-01T21:28:44.239Z,11.95
2018-09-01T21:31:13.490Z,11.96
2018-09-01T21:33:42.624Z,12.00
2018-09-01T21:36:11.946Z,11.95
2018-09-01T21:38:41.072Z,11.96
2018-09-01T21:41:10.266Z,11.96
2018-09-01T21:43:39.468Z,11.92
2018-09-01T21:46:08.659Z,11.91
2018-09-01T21:48:37.854Z,11.87
2018-09-01T21:51:06.966Z,11.86
2018-09-01T21:53:36.141Z,11.88
2018-09-01T21:56:05.767Z,11.90
2018-09-01T21:58:34.967Z,11.93
2018-09-01T22:01:09.447Z,11.95
2018-09-01T22:03:43.947Z,11.99
2018-09-01T22:06:13.157Z,12.02
2018-09-01T22:08:42.282Z,11.93
2018-09-01T22:11:11.393Z,11.94
2018-09-01T22:13:40.540Z,11.97
2018-09-01T22:16:09.657Z,12.03
2018-09-01T22:18:38.811Z,11.94
2018-09-01T22:21:08.489Z,11.98
2018-09-01T22:23:38.273Z,11.94
2018-09-01T22:26:07.774Z,12.03
2018-09-01T22:28:37.175Z,11.99
2018-09-01T22:31:06.297Z,12.02
2018-09-01T22:33:35.696Z,12.00
2018-09-01T22:36:07.756Z,12.03
2018-09-01T22:38:36.961Z,12.04
2018-09-01T22:41:06.072Z,12.01
2018-09-01T22:43:35.174Z,12.03
2018-09-01T22:46:04.360Z,12.03
2018-09-01T22:48:33.506Z,12.03
2018-09-01T22:51:02.636Z,12.04
2018-09-01T22:53:31.848Z,12.09
2018-09-01T22:56:01.032Z,12.02
2018-09-01T22:58:30.244Z,12.06
2018-09-01T23:00:59.368Z,12.05
2018-09-01T23:03:28.642Z,12.04
2018-09-01T23:05:57.988Z,12.02
2018-09-01T23:08:27.179Z,12.03
2018-09-01T23:10:56.383Z,12.01
2018-09-01T23:13:25.500Z,12.02
2018-09-01T23:15:54.715Z,12.02
2018-09-01T23:18:23.938Z,12.08
2018-09-01T23:20:53.017Z,12.13
2018-09-01T23:23:22.186Z,12.02
2018-09-01T23:25:51.446Z,12.08
2018-09-01T23:28:20.616Z,12.06
2018-09-01T23:30:49.714Z,12.07
2018-09-01T23:33:18.930Z,12.07
2018-09-01T23:35:48.064Z,12.06
2018-09-01T23:38:17.197Z,12.02
2018-09-01T23:40:46.369Z,12.05
2018-09-01T23:43:15.663Z,12.04
2018-09-01T23:45:44.881Z,12.01
2018-09-01T23:48:13.992Z,12.04
2018-09-01T23:50:43.154Z,12.02
2018-09-01T23:53:12.241Z,12.10
2018-09-01T23:55:41.509Z,12.04
2018-09-01T23:58:10.697Z,12.03
